Sao Bras, Brazil
Current Conditions -  °F | °C
As of 10:00 AM on Friday 19 Dec 2014 (Local Time) from SBAR Reporting Station
Scattered Clouds Scattered Clouds  
Wind Chill: 84°   Ceiling: Unl
Heat Index: 90°   Visibility: 6mi
Dew Point: 72°   Wind: 13mph
Humidity: 66%   Direction: 80°E
Pressure: 29.91"   Gusts: NA
Location:  10.13°S, 36.9°W
Report Text: SBAR 191300Z 08011KT 9999 SCT015 SCT100 29/22 Q1013
Loading
Personal Weather Stations






























Interactive Weather Map New forecast layout! Learn more

10-Day Weather Forecast

Advertisements
Track Severe Weather on mobile